Decoded Metar for LFOA (AVORD in FRANCE) (IATA:N/A) | Meteo·Mobile Aviation Weather
aviador You're here:

LFOA Decoded Metar

AVORD in FRANCE
Report Time2019-09-23 08:30:00
UTC Time2019-09-23 09:02:38
Flight Rules mvfr MVFR
Wind250° at 08 kt
W.Decomp.*RWY 24: 7.9 kt HW 1.4 kt RCW
Visibility9999 m
Phenomena:N/A
Clouds:Few 010 Hf
Broken 015 Hf
Broken 029 Hf
Expected CloudBase > 1,200 ft AGL from Temp-Dew spread
Ceiling1,500 ft
Temp16°C (ISA +2)
Dew Point13°C (83% RH)
AAT14.1°C
QNH1019 hPa
Density Alt843 ft
Elevation587 ft
Report Wrong Elevation
Raw Report
LFOA 230830Z AUTO 25008KT 9999 FEW010 BKN015 BKN029 16/13 Q1019
NOSIG=

Extra information for LFOA:More info

Metar Taf Metar & Taf Last 4 Metars F.Rules Stats Wind Profile Meteogram Temp Stats Airport Information Weather charts Add Link Nearby VenuesMetar ALERT Operation Metar Decoded Social comments